createdAt,value
2018-11-23T00:00:07.547Z,1014.61
2018-11-23T00:01:07.210Z,1014.63
2018-11-23T00:02:07.256Z,1014.58
2018-11-23T00:03:07.190Z,1014.57
2018-11-23T00:04:07.180Z,1014.57
2018-11-23T00:05:07.555Z,1014.57
2018-11-23T00:06:08.039Z,1014.61
2018-11-23T00:07:08.049Z,1014.58
2018-11-23T00:08:08.031Z,1014.61
2018-11-23T00:09:07.139Z,1014.63
2018-11-23T00:10:07.137Z,1014.63
2018-11-23T00:11:08.037Z,1014.61
2018-11-23T00:12:07.099Z,1014.65
2018-11-23T00:13:07.087Z,1014.58
2018-11-23T00:14:07.071Z,1014.59
2018-11-23T00:15:07.081Z,1014.60
2018-11-23T00:16:07.077Z,1014.60
2018-11-23T00:17:07.041Z,1014.60
2018-11-23T00:18:07.041Z,1014.61
2018-11-23T00:19:07.019Z,1014.57
2018-11-23T00:20:07.033Z,1014.58
2018-11-23T00:21:07.009Z,1014.58
2018-11-23T00:22:06.984Z,1014.61
2018-11-23T00:23:06.988Z,1014.59
2018-11-23T00:24:06.969Z,1014.63
2018-11-23T00:25:06.992Z,1014.62
2018-11-23T00:26:07.539Z,1014.65
2018-11-23T00:27:06.975Z,1014.63
2018-11-23T00:28:06.921Z,1014.66
2018-11-23T00:29:07.539Z,1014.65
2018-11-23T00:30:06.942Z,1014.63
2018-11-23T00:31:06.889Z,1014.59
2018-11-23T00:32:06.891Z,1014.68
2018-11-23T00:33:06.883Z,1014.65
2018-11-23T00:34:06.866Z,1014.70
2018-11-23T00:35:06.877Z,1014.70
2018-11-23T00:36:07.532Z,1014.68
2018-11-23T00:37:06.826Z,1014.69
2018-11-23T00:38:06.830Z,1014.73
2018-11-23T00:39:07.533Z,1014.72
2018-11-23T00:40:06.822Z,1014.75
2018-11-23T00:41:06.787Z,1014.73
2018-11-23T00:42:06.773Z,1014.71
2018-11-23T00:43:06.772Z,1014.69
2018-11-23T00:44:06.770Z,1014.68
2018-11-23T00:45:06.760Z,1014.71
2018-11-23T00:46:06.730Z,1014.71
2018-11-23T00:47:06.722Z,1014.75
2018-11-23T00:48:06.732Z,1014.76
2018-11-23T00:49:07.537Z,1014.77
2018-11-23T00:50:06.708Z,1014.80
2018-11-23T00:51:06.674Z,1014.79
2018-11-23T00:52:07.538Z,1014.83
2018-11-23T00:53:06.690Z,1014.84
2018-11-23T00:54:06.663Z,1014.81
2018-11-23T00:55:07.050Z,1014.84
2018-11-23T00:56:06.619Z,1014.87
2018-11-23T00:57:06.646Z,1014.90
2018-11-23T00:58:06.666Z,1014.82
2018-11-23T00:59:07.559Z,1014.84
2018-11-23T01:00:06.595Z,1014.84
2018-11-23T01:01:06.569Z,1014.87
2018-11-23T01:02:06.566Z,1014.89
2018-11-23T01:03:06.601Z,1014.87
2018-11-23T01:04:06.559Z,1014.89
2018-11-23T01:05:06.564Z,1014.86
2018-11-23T01:06:06.518Z,1014.86
2018-11-23T01:07:06.499Z,1014.92
2018-11-23T01:08:06.525Z,1014.86
2018-11-23T01:09:07.037Z,1014.93
2018-11-23T01:10:06.505Z,1014.91
2018-11-23T01:11:06.456Z,1014.92
2018-11-23T01:12:06.452Z,1014.90
2018-11-23T01:13:06.453Z,1014.89
2018-11-23T01:14:06.433Z,1014.89
2018-11-23T01:15:06.421Z,1014.90
2018-11-23T01:16:06.422Z,1014.87
2018-11-23T01:17:06.389Z,1014.89
2018-11-23T01:18:06.395Z,1014.84
2018-11-23T01:19:07.043Z,1014.83
2018-11-23T01:20:06.352Z,1014.86
2018-11-23T01:21:06.485Z,1014.86
2018-11-23T01:22:06.335Z,1014.87
2018-11-23T01:23:06.337Z,1014.85
2018-11-23T01:24:07.032Z,1014.87
2018-11-23T01:25:06.308Z,1014.89
2018-11-23T01:26:06.558Z,1014.87
2018-11-23T01:27:06.285Z,1014.87
2018-11-23T01:28:06.277Z,1014.86
2018-11-23T01:29:07.084Z,1014.90
2018-11-23T01:30:07.057Z,1014.87
2018-11-23T01:31:06.273Z,1014.90
2018-11-23T01:32:07.079Z,1014.90
2018-11-23T01:33:06.209Z,1014.91
2018-11-23T01:34:06.203Z,1014.91
2018-11-23T01:35:06.198Z,1014.89
2018-11-23T01:36:06.349Z,1014.91
2018-11-23T01:37:06.171Z,1014.89
2018-11-23T01:38:06.160Z,1014.89
2018-11-23T01:39:06.150Z,1014.84
2018-11-23T01:40:07.038Z,1014.89
2018-11-23T01:41:06.149Z,1014.88
2018-11-23T01:42:06.114Z,1014.84
2018-11-23T01:43:06.117Z,1014.80
2018-11-23T01:44:07.048Z,1014.83
2018-11-23T01:45:06.079Z,1014.82
2018-11-23T01:46:06.571Z,1014.84
2018-11-23T01:47:07.090Z,1014.80
2018-11-23T01:48:07.046Z,1014.81
2018-11-23T01:49:06.086Z,1014.83
2018-11-23T01:50:06.028Z,1014.84
2018-11-23T01:51:06.026Z,1014.83
2018-11-23T01:52:06.538Z,1014.82
2018-11-23T01:53:05.999Z,1014.85
2018-11-23T01:54:06.540Z,1014.86
2018-11-23T01:55:05.971Z,1014.83
2018-11-23T01:56:06.009Z,1014.83
2018-11-23T01:57:06.541Z,1014.82
2018-11-23T01:58:05.993Z,1014.81
2018-11-23T01:59:05.932Z,1014.80
2018-11-23T02:00:06.549Z,1014.83
2018-11-23T02:01:05.984Z,1014.83
2018-11-23T02:02:06.541Z,1014.86
2018-11-23T02:03:05.904Z,1014.87
2018-11-23T02:04:05.875Z,1014.89
2018-11-23T02:05:06.539Z,1014.90
2018-11-23T02:06:06.065Z,1014.96
2018-11-23T02:07:05.839Z,1014.90
2018-11-23T02:08:05.833Z,1014.90
2018-11-23T02:09:05.826Z,1014.87
2018-11-23T02:10:05.813Z,1014.88
2018-11-23T02:11:05.852Z,1014.88
2018-11-23T02:12:05.795Z,1014.87
2018-11-23T02:13:06.539Z,1014.90
2018-11-23T02:14:05.777Z,1014.88
2018-11-23T02:15:05.771Z,1014.90
2018-11-23T02:16:06.065Z,1014.84
2018-11-23T02:17:06.545Z,1014.87
2018-11-23T02:18:05.733Z,1014.88
2018-11-23T02:19:05.721Z,1014.83
2018-11-23T02:20:05.725Z,1014.86
2018-11-23T02:21:06.053Z,1014.85
2018-11-23T02:22:05.688Z,1014.88
2018-11-23T02:23:05.698Z,1014.84
2018-11-23T02:24:05.670Z,1014.84
2018-11-23T02:25:05.658Z,1014.85
2018-11-23T02:26:05.673Z,1014.90
2018-11-23T02:27:05.642Z,1014.85
2018-11-23T02:28:05.622Z,1014.83
2018-11-23T02:29:06.554Z,1014.87
2018-11-23T02:30:05.604Z,1014.81
2018-11-23T02:31:06.059Z,1014.82
2018-11-23T02:32:06.542Z,1014.80
2018-11-23T02:33:06.540Z,1014.85
2018-11-23T02:34:05.562Z,1014.81
2018-11-23T02:35:05.607Z,1014.84
2018-11-23T02:36:05.558Z,1014.78
2018-11-23T02:37:05.525Z,1014.80
2018-11-23T02:38:05.517Z,1014.80
2018-11-23T02:39:06.038Z,1014.80
2018-11-23T02:40:05.519Z,1014.78
2018-11-23T02:41:05.524Z,1014.78
2018-11-23T02:42:05.472Z,1014.83
2018-11-23T02:43:05.463Z,1014.78
2018-11-23T02:44:06.043Z,1014.80
2018-11-23T02:45:06.063Z,1014.79
2018-11-23T02:46:05.560Z,1014.77
2018-11-23T02:47:05.431Z,1014.79
2018-11-23T02:48:06.072Z,1014.83
2018-11-23T02:49:05.405Z,1014.89
2018-11-23T02:50:05.394Z,1014.81
2018-11-23T02:51:05.408Z,1014.80
2018-11-23T02:52:05.371Z,1014.83
2018-11-23T02:53:05.357Z,1014.80
2018-11-23T02:54:05.345Z,1014.79
2018-11-23T02:55:05.356Z,1014.80
2018-11-23T02:56:05.353Z,1014.79
2018-11-23T02:57:05.313Z,1014.82
2018-11-23T02:58:06.056Z,1014.80
2018-11-23T02:59:05.322Z,1014.78
2018-11-23T03:00:05.285Z,1014.80
2018-11-23T03:01:05.297Z,1014.80
2018-11-23T03:02:05.259Z,1014.77
2018-11-23T03:03:06.044Z,1014.79
2018-11-23T03:04:05.242Z,1014.77
2018-11-23T03:05:05.225Z,1014.74
2018-11-23T03:06:05.250Z,1014.76
2018-11-23T03:07:06.051Z,1014.73
2018-11-23T03:08:05.201Z,1014.68
2018-11-23T03:09:05.229Z,1014.70
2018-11-23T03:10:05.185Z,1014.68
2018-11-23T03:11:05.207Z,1014.75
2018-11-23T03:12:05.158Z,1014.70
2018-11-23T03:13:05.150Z,1014.64
2018-11-23T03:14:05.129Z,1014.59
2018-11-23T03:15:05.127Z,1014.60
2018-11-23T03:16:05.157Z,1014.56
2018-11-23T03:17:05.099Z,1014.53
2018-11-23T03:18:05.090Z,1014.51
2018-11-23T03:19:05.091Z,1014.46
2018-11-23T03:20:05.065Z,1014.51
2018-11-23T03:21:05.148Z,1014.54
2018-11-23T03:22:05.049Z,1014.53
2018-11-23T03:23:05.035Z,1014.54
2018-11-23T03:24:05.030Z,1014.54
2018-11-23T03:25:05.014Z,1014.54
2018-11-23T03:26:05.056Z,1014.55
2018-11-23T03:27:05.011Z,1014.56
2018-11-23T03:28:04.976Z,1014.55
2018-11-23T03:29:05.542Z,1014.55
2018-11-23T03:30:04.960Z,1014.53
2018-11-23T03:31:12.051Z,1014.51
2018-11-23T03:32:04.967Z,1014.49
2018-11-23T03:33:05.544Z,1014.50
2018-11-23T03:34:04.918Z,1014.45
2018-11-23T03:35:04.906Z,1014.43
2018-11-23T03:36:04.909Z,1014.43
2018-11-23T03:37:05.059Z,1014.44
2018-11-23T03:38:05.543Z,1014.40
2018-11-23T03:39:04.864Z,1014.40
2018-11-23T03:40:04.854Z,1014.46
2018-11-23T03:41:04.854Z,1014.45
2018-11-23T03:42:05.059Z,1014.41
2018-11-23T03:43:04.822Z,1014.46
2018-11-23T03:44:04.812Z,1014.48
2018-11-23T03:45:04.809Z,1014.47
2018-11-23T03:46:05.007Z,1014.43
2018-11-23T03:47:04.794Z,1014.41
2018-11-23T03:48:04.771Z,1014.41
2018-11-23T03:49:05.543Z,1014.37
2018-11-23T03:50:04.746Z,1014.35
2018-11-23T03:51:05.040Z,1014.33
2018-11-23T03:52:04.776Z,1014.47
2018-11-23T03:53:04.714Z,1014.45
2018-11-23T03:54:05.552Z,1014.46
2018-11-23T03:55:04.693Z,1014.48
2018-11-23T03:56:04.707Z,1014.49
2018-11-23T03:57:04.688Z,1014.49
2018-11-23T03:58:04.663Z,1014.49
2018-11-23T03:59:04.660Z,1014.45
2018-11-23T04:00:04.656Z,1014.45
2018-11-23T04:01:04.643Z,1014.39
2018-11-23T04:02:04.651Z,1014.39
2018-11-23T04:03:04.607Z,1014.42
2018-11-23T04:04:05.547Z,1014.48
2018-11-23T04:05:05.562Z,1014.43
2018-11-23T04:06:04.573Z,1014.43
2018-11-23T04:07:04.593Z,1014.37
2018-11-23T04:08:04.563Z,1014.41
2018-11-23T04:09:04.543Z,1014.38
2018-11-23T04:10:05.052Z,1014.35
2018-11-23T04:11:04.523Z,1014.40
2018-11-23T04:12:04.594Z,1014.38
2018-11-23T04:13:04.501Z,1014.39
2018-11-23T04:14:04.489Z,1014.38
2018-11-23T04:15:04.482Z,1014.39
2018-11-23T04:16:04.470Z,1014.35
2018-11-23T04:17:04.859Z,1014.36
2018-11-23T04:18:04.452Z,1014.42
2018-11-23T04:19:04.443Z,1014.43
2018-11-23T04:20:04.435Z,1014.35
2018-11-23T04:21:04.419Z,1014.36
2018-11-23T04:22:04.448Z,1014.39
2018-11-23T04:23:04.419Z,1014.43
2018-11-23T04:24:04.389Z,1014.43
2018-11-23T04:25:04.370Z,1014.38
2018-11-23T04:26:04.372Z,1014.37
2018-11-23T04:27:04.402Z,1014.40
2018-11-23T04:28:04.345Z,1014.40
2018-11-23T04:29:04.330Z,1014.42
2018-11-23T04:30:05.054Z,1014.44
2018-11-23T04:31:04.311Z,1014.45
2018-11-23T04:32:04.353Z,1014.41
2018-11-23T04:33:04.287Z,1014.41
2018-11-23T04:34:05.064Z,1014.41
2018-11-23T04:35:04.272Z,1014.39
2018-11-23T04:36:04.264Z,1014.31
2018-11-23T04:37:04.657Z,1014.34
2018-11-23T04:38:04.236Z,1014.36
2018-11-23T04:39:04.223Z,1014.38
2018-11-23T04:40:05.051Z,1014.40
2018-11-23T04:41:04.221Z,1014.34
2018-11-23T04:42:04.222Z,1014.37
2018-11-23T04:43:04.182Z,1014.35
2018-11-23T04:44:04.170Z,1014.35
2018-11-23T04:45:04.160Z,1014.33
2018-11-23T04:46:05.074Z,1014.30
2018-11-23T04:47:04.172Z,1014.31
2018-11-23T04:48:04.140Z,1014.29
2018-11-23T04:49:04.129Z,1014.25
2018-11-23T04:50:04.108Z,1014.29
2018-11-23T04:51:05.049Z,1014.33
2018-11-23T04:52:04.134Z,1014.31
2018-11-23T04:53:04.081Z,1014.30
2018-11-23T04:54:04.079Z,1014.30
2018-11-23T04:55:04.054Z,1014.30
2018-11-23T04:56:04.072Z,1014.32
2018-11-23T04:57:04.087Z,1014.28
2018-11-23T04:58:04.551Z,1014.36
2018-11-23T04:59:04.552Z,1014.29
2018-11-23T05:00:03.998Z,1014.33
2018-11-23T05:01:03.990Z,1014.29
2018-11-23T05:02:03.997Z,1014.28
2018-11-23T05:03:03.967Z,1014.27
2018-11-23T05:04:03.966Z,1014.30
2018-11-23T05:05:03.948Z,1014.31
2018-11-23T05:06:03.969Z,1014.28
2018-11-23T05:07:04.004Z,1014.27
2018-11-23T05:08:03.922Z,1014.32
2018-11-23T05:09:03.917Z,1014.29
2018-11-23T05:10:03.903Z,1014.29
2018-11-23T05:11:03.886Z,1014.29
2018-11-23T05:12:03.908Z,1014.23
2018-11-23T05:13:03.861Z,1014.24
2018-11-23T05:14:03.850Z,1014.27
2018-11-23T05:15:04.554Z,1014.31
2018-11-23T05:16:03.839Z,1014.33
2018-11-23T05:17:04.078Z,1014.37
2018-11-23T05:18:03.991Z,1014.37
2018-11-23T05:19:03.803Z,1014.38
2018-11-23T05:20:03.795Z,1014.37
2018-11-23T05:21:03.782Z,1014.36
2018-11-23T05:22:03.814Z,1014.37
2018-11-23T05:23:03.781Z,1014.38
2018-11-23T05:24:03.746Z,1014.38
2018-11-23T05:25:03.734Z,1014.35
2018-11-23T05:26:03.729Z,1014.38
2018-11-23T05:27:04.553Z,1014.38
2018-11-23T05:28:04.073Z,1014.39
2018-11-23T05:29:03.733Z,1014.38
2018-11-23T05:30:03.689Z,1014.38
2018-11-23T05:31:03.670Z,1014.40
2018-11-23T05:32:03.661Z,1014.39
2018-11-23T05:33:03.692Z,1014.39
2018-11-23T05:34:03.651Z,1014.41
2018-11-23T05:35:03.643Z,1014.34
2018-11-23T05:36:03.617Z,1014.35
2018-11-23T05:37:03.607Z,1014.35
2018-11-23T05:38:03.653Z,1014.33
2018-11-23T05:39:03.590Z,1014.36
2018-11-23T05:40:03.576Z,1014.35
2018-11-23T05:41:03.566Z,1014.28
2018-11-23T05:42:03.562Z,1014.32
2018-11-23T05:43:04.492Z,1014.26
2018-11-23T05:44:03.534Z,1014.24
2018-11-23T05:45:03.535Z,1014.28
2018-11-23T05:46:04.057Z,1014.28
2018-11-23T05:47:03.504Z,1014.29
2018-11-23T05:48:03.662Z,1014.20
2018-11-23T05:49:04.052Z,1014.18
2018-11-23T05:50:03.471Z,1014.21
2018-11-23T05:51:04.057Z,1014.21
2018-11-23T05:52:04.056Z,1014.16
2018-11-23T05:53:03.768Z,1014.19
2018-11-23T05:54:03.436Z,1014.15
2018-11-23T05:55:03.420Z,1014.11
2018-11-23T05:56:04.056Z,1014.13
2018-11-23T05:57:03.404Z,1014.12
2018-11-23T05:58:03.596Z,1014.04
2018-11-23T05:59:03.376Z,1014.07
2018-11-23T06:00:03.369Z,1014.01
2018-11-23T06:01:03.360Z,1013.98
2018-11-23T06:02:03.348Z,1014.02
2018-11-23T06:03:03.377Z,1014.02
2018-11-23T06:04:03.321Z,1014.02
2018-11-23T06:05:03.354Z,1014.01
2018-11-23T06:06:03.297Z,1014.02
2018-11-23T06:07:04.052Z,1014.06
2018-11-23T06:08:03.304Z,1014.06
2018-11-23T06:09:04.070Z,1014.04
2018-11-23T06:10:03.260Z,1014.03
2018-11-23T06:11:03.245Z,1014.02
2018-11-23T06:12:03.235Z,1013.99
2018-11-23T06:13:03.245Z,1013.95
2018-11-23T06:14:03.233Z,1013.88
2018-11-23T06:15:04.056Z,1013.91
2018-11-23T06:16:03.208Z,1013.92
2018-11-23T06:17:03.183Z,1013.96
2018-11-23T06:18:03.197Z,1013.94
2018-11-23T06:19:03.163Z,1013.99
2018-11-23T06:20:03.178Z,1013.98
2018-11-23T06:21:04.052Z,1013.95
2018-11-23T06:22:03.144Z,1013.94
2018-11-23T06:23:03.136Z,1013.97
2018-11-23T06:24:04.054Z,1013.96
2018-11-23T06:25:03.118Z,1013.93
2018-11-23T06:26:04.058Z,1013.87
2018-11-23T06:27:04.211Z,1013.88
2018-11-23T06:28:03.242Z,1013.93
2018-11-23T06:29:03.063Z,1013.93
2018-11-23T06:30:03.059Z,1013.89
2018-11-23T06:31:03.551Z,1013.89
2018-11-23T06:32:03.035Z,1013.89
2018-11-23T06:33:03.052Z,1013.92
2018-11-23T06:34:03.010Z,1013.94
2018-11-23T06:35:03.002Z,1013.97
2018-11-23T06:36:03.571Z,1013.94
2018-11-23T06:37:03.569Z,1014.03
2018-11-23T06:38:03.034Z,1014.02
2018-11-23T06:39:02.974Z,1014.08
2018-11-23T06:40:02.957Z,1014.13
2018-11-23T06:41:02.935Z,1014.10
2018-11-23T06:42:02.919Z,1014.14
2018-11-23T06:43:03.066Z,1014.18
2018-11-23T06:44:03.560Z,1014.20
2018-11-23T06:45:02.896Z,1014.19
2018-11-23T06:46:02.881Z,1014.19
2018-11-23T06:47:02.868Z,1014.18
2018-11-23T06:48:02.879Z,1014.16
2018-11-23T06:49:03.555Z,1014.12
2018-11-23T06:50:03.556Z,1014.14
2018-11-23T06:51:02.826Z,1014.04
2018-11-23T06:52:02.814Z,1014.11
2018-11-23T06:53:02.862Z,1014.07
2018-11-23T06:54:02.793Z,1014.10
2018-11-23T06:55:02.790Z,1014.10
2018-11-23T06:56:03.559Z,1014.13
2018-11-23T06:57:03.575Z,1014.06
2018-11-23T06:58:02.777Z,1014.05
2018-11-23T06:59:02.737Z,1014.05
2018-11-23T07:00:03.554Z,1014.07
2018-11-23T07:01:02.732Z,1014.12
2018-11-23T07:02:03.554Z,1014.07
2018-11-23T07:03:02.765Z,1014.07
2018-11-23T07:04:02.713Z,1014.06
2018-11-23T07:05:03.584Z,1014.16
2018-11-23T07:06:02.663Z,1014.16
2018-11-23T07:07:02.656Z,1014.22
2018-11-23T07:08:02.676Z,1014.22
2018-11-23T07:09:02.658Z,1014.17
2018-11-23T07:10:03.568Z,1014.17
2018-11-23T07:11:03.554Z,1014.22
2018-11-23T07:12:03.562Z,1014.25
2018-11-23T07:13:03.067Z,1014.23
2018-11-23T07:14:04.083Z,1014.24
2018-11-23T07:15:02.572Z,1014.20
2018-11-23T07:16:02.559Z,1014.17
2018-11-23T07:17:02.570Z,1014.20
2018-11-23T07:18:02.565Z,1014.18
2018-11-23T07:19:02.540Z,1014.19
2018-11-23T07:20:02.515Z,1014.17
2018-11-23T07:21:02.502Z,1014.19
2018-11-23T07:22:03.065Z,1014.17
2018-11-23T07:23:02.592Z,1014.19
2018-11-23T07:24:02.481Z,1014.22
2018-11-23T07:25:02.460Z,1014.29
2018-11-23T07:26:02.443Z,1014.25
2018-11-23T07:27:02.439Z,1014.31
2018-11-23T07:28:02.467Z,1014.29
2018-11-23T07:29:02.428Z,1014.34
2018-11-23T07:30:03.077Z,1014.32
2018-11-23T07:31:02.653Z,1014.34
2018-11-23T07:32:02.383Z,1014.30
2018-11-23T07:33:02.368Z,1014.29
2018-11-23T07:34:02.673Z,1014.38
2018-11-23T07:35:03.060Z,1014.35
2018-11-23T07:36:02.338Z,1014.38
2018-11-23T07:37:02.340Z,1014.39
2018-11-23T07:38:02.328Z,1014.42
2018-11-23T07:39:02.318Z,1014.44
2018-11-23T07:40:02.301Z,1014.42
2018-11-23T07:41:02.280Z,1014.44
2018-11-23T07:42:02.269Z,1014.37
2018-11-23T07:43:02.281Z,1014.39
2018-11-23T07:44:03.083Z,1014.39
2018-11-23T07:45:02.238Z,1014.35
2018-11-23T07:46:03.170Z,1014.38
2018-11-23T07:47:02.217Z,1014.32
2018-11-23T07:48:02.203Z,1014.33
2018-11-23T07:49:02.212Z,1014.27
2018-11-23T07:50:02.181Z,1014.21
2018-11-23T07:51:02.185Z,1014.27
2018-11-23T07:52:03.061Z,1014.29
2018-11-23T07:53:02.150Z,1014.22
2018-11-23T07:54:02.191Z,1014.28
2018-11-23T07:55:03.074Z,1014.33
2018-11-23T07:56:03.061Z,1014.27
2018-11-23T07:57:02.112Z,1014.31
2018-11-23T07:58:02.093Z,1014.40
2018-11-23T07:59:02.097Z,1014.39
2018-11-23T08:00:03.104Z,1014.39
2018-11-23T08:01:03.065Z,1014.33
2018-11-23T08:02:02.560Z,1014.30
2018-11-23T08:03:02.039Z,1014.20
2018-11-23T08:04:02.045Z,1014.15
2018-11-23T08:05:02.025Z,1014.17
2018-11-23T08:06:02.009Z,1014.17
2018-11-23T08:07:02.577Z,1014.14
2018-11-23T08:08:02.572Z,1014.16
2018-11-23T08:09:02.078Z,1014.15
2018-11-23T08:10:02.068Z,1014.16
2018-11-23T08:11:01.951Z,1014.18
2018-11-23T08:12:02.559Z,1014.14
2018-11-23T08:13:02.559Z,1014.18
2018-11-23T08:14:01.940Z,1014.14
2018-11-23T08:15:02.569Z,1014.16
2018-11-23T08:16:01.897Z,1014.06
2018-11-23T08:17:01.926Z,1014.09
2018-11-23T08:18:01.877Z,1014.06
2018-11-23T08:19:01.892Z,1014.10
2018-11-23T08:20:01.865Z,1014.08
2018-11-23T08:21:01.847Z,1014.13
2018-11-23T08:22:01.863Z,1014.10
2018-11-23T08:23:02.563Z,1014.13
2018-11-23T08:24:01.822Z,1014.12
2018-11-23T08:25:01.801Z,1014.14
2018-11-23T08:26:02.589Z,1014.23
2018-11-23T08:27:02.567Z,1014.20
2018-11-23T08:28:02.579Z,1014.26
2018-11-23T08:29:02.134Z,1014.31
2018-11-23T08:30:01.898Z,1014.33
2018-11-23T08:31:01.742Z,1014.38
2018-11-23T08:32:02.567Z,1014.31
2018-11-23T08:33:01.732Z,1014.28
2018-11-23T08:34:02.107Z,1014.28
2018-11-23T08:35:02.589Z,1014.26
2018-11-23T08:36:01.684Z,1014.21
2018-11-23T08:37:01.677Z,1014.19
2018-11-23T08:38:01.777Z,1014.15
2018-11-23T08:39:04.724Z,1014.13
2018-11-23T08:40:01.632Z,1014.04
2018-11-23T08:41:02.561Z,1014.13
2018-11-23T08:42:02.561Z,1014.06
2018-11-23T08:43:01.613Z,1014.09
2018-11-23T08:44:03.635Z,1014.13
2018-11-23T08:45:01.581Z,1014.12
2018-11-23T08:46:02.566Z,1014.17
2018-11-23T08:47:02.101Z,1014.21
2018-11-23T08:48:02.087Z,1014.14
2018-11-23T08:49:02.112Z,1014.10
2018-11-23T08:50:02.195Z,1014.15
2018-11-23T08:51:02.097Z,1014.09
2018-11-23T08:52:02.092Z,1014.10
2018-11-23T08:53:01.498Z,1014.08
2018-11-23T08:54:01.510Z,1014.03
2018-11-23T08:55:01.469Z,1014.11
2018-11-23T08:56:02.082Z,1014.07
2018-11-23T08:57:01.611Z,1014.14
2018-11-23T08:58:01.434Z,1014.21
2018-11-23T08:59:01.439Z,1014.23
2018-11-23T09:00:02.091Z,1014.25
2018-11-23T09:01:02.294Z,1014.24
2018-11-23T09:02:04.183Z,1014.19
2018-11-23T09:03:01.393Z,1014.17
2018-11-23T09:04:01.388Z,1014.18
2018-11-23T09:05:02.100Z,1014.27
2018-11-23T09:06:02.179Z,1014.24
2018-11-23T09:07:01.341Z,1014.25
2018-11-23T09:08:01.377Z,1014.24
2018-11-23T09:09:01.582Z,1014.23
2018-11-23T09:10:02.090Z,1014.21
2018-11-23T09:11:02.121Z,1014.18
2018-11-23T09:12:01.290Z,1014.20
2018-11-23T09:13:01.435Z,1014.17
2018-11-23T09:14:01.282Z,1014.16
2018-11-23T09:15:04.062Z,1014.11
2018-11-23T09:16:02.144Z,1014.12
2018-11-23T09:17:01.289Z,1014.10
2018-11-23T09:18:02.075Z,1014.15
2018-11-23T09:19:01.267Z,1014.12
2018-11-23T09:20:02.122Z,1014.14
2018-11-23T09:21:02.095Z,1014.17
2018-11-23T09:22:02.099Z,1014.15
2018-11-23T09:23:01.164Z,1014.16
2018-11-23T09:24:02.112Z,1014.16
2018-11-23T09:25:02.078Z,1014.10
2018-11-23T09:26:02.097Z,1014.09
2018-11-23T09:27:02.094Z,1014.06
2018-11-23T09:28:02.093Z,1014.08
2018-11-23T09:29:02.114Z,1014.06
2018-11-23T09:30:01.086Z,1014.04
2018-11-23T09:31:02.135Z,1014.02
2018-11-23T09:32:01.601Z,1014.02
2018-11-23T09:33:01.658Z,1014.06
2018-11-23T09:34:01.074Z,1014.04
2018-11-23T09:35:02.483Z,1014.05
2018-11-23T09:36:01.567Z,1014.12
2018-11-23T09:37:01.576Z,1014.14
2018-11-23T09:38:01.704Z,1014.10
2018-11-23T09:39:01.698Z,1014.17
2018-11-23T09:40:01.691Z,1014.13
2018-11-23T09:41:01.565Z,1014.13
2018-11-23T09:42:01.646Z,1014.17
2018-11-23T09:43:01.581Z,1014.13
2018-11-23T09:44:01.570Z,1014.14
2018-11-23T09:45:01.597Z,1014.13
2018-11-23T09:46:01.667Z,1014.11
2018-11-23T09:47:01.586Z,1014.17
2018-11-23T09:48:01.585Z,1014.05
2018-11-23T09:49:01.575Z,1014.05
2018-11-23T09:50:01.110Z,1014.05
2018-11-23T09:51:00.896Z,1014.02
2018-11-23T09:52:01.575Z,1013.98
2018-11-23T09:53:01.574Z,1013.98
2018-11-23T09:54:00.831Z,1013.92
2018-11-23T09:55:01.588Z,1013.88
2018-11-23T09:56:01.605Z,1013.86
2018-11-23T09:57:01.619Z,1013.85
2018-11-23T09:58:01.568Z,1013.85
2018-11-23T09:59:01.708Z,1013.82
2018-11-23T10:00:01.615Z,1013.87
2018-11-23T10:01:00.760Z,1013.83
2018-11-23T10:02:01.567Z,1013.81
2018-11-23T10:03:01.588Z,1013.81
2018-11-23T10:04:00.788Z,1013.77
2018-11-23T10:05:01.613Z,1013.79
2018-11-23T10:06:01.705Z,1013.73
2018-11-23T10:07:01.585Z,1013.74
2018-11-23T10:08:01.568Z,1013.80
2018-11-23T10:09:01.580Z,1013.76
2018-11-23T10:10:00.669Z,1013.75
2018-11-23T10:11:01.573Z,1013.71
2018-11-23T10:12:00.638Z,1013.73
2018-11-23T10:13:00.629Z,1013.68
2018-11-23T10:14:01.568Z,1013.70
2018-11-23T10:15:01.591Z,1013.67
2018-11-23T10:16:00.585Z,1013.69
2018-11-23T10:17:01.644Z,1013.70
2018-11-23T10:18:00.622Z,1013.66
2018-11-23T10:19:01.063Z,1013.72
2018-11-23T10:20:01.184Z,1013.69
2018-11-23T10:21:00.622Z,1013.68
2018-11-23T10:22:01.110Z,1013.71
2018-11-23T10:23:01.237Z,1013.70
2018-11-23T10:24:01.076Z,1013.75
2018-11-23T10:25:01.096Z,1013.70
2018-11-23T10:26:01.065Z,1013.69
2018-11-23T10:27:00.589Z,1013.68
2018-11-23T10:28:00.498Z,1013.66
2018-11-23T10:29:01.086Z,1013.64
2018-11-23T10:30:01.298Z,1013.64
2018-11-23T10:31:01.076Z,1013.60
2018-11-23T10:32:00.573Z,1013.63
2018-11-23T10:33:01.075Z,1013.58
2018-11-23T10:34:00.392Z,1013.59
2018-11-23T10:35:01.100Z,1013.54
2018-11-23T10:36:00.405Z,1013.58
2018-11-23T10:37:01.067Z,1013.55
2018-11-23T10:38:00.365Z,1013.57
2018-11-23T10:39:00.332Z,1013.57
2018-11-23T10:40:01.124Z,1013.63
2018-11-23T10:41:00.470Z,1013.61
2018-11-23T10:42:01.082Z,1013.60
2018-11-23T10:43:00.347Z,1013.58
2018-11-23T10:44:01.077Z,1013.49
2018-11-23T10:45:00.584Z,1013.55
2018-11-23T10:46:01.082Z,1013.53
2018-11-23T10:47:01.071Z,1013.49
2018-11-23T10:48:01.362Z,1013.47
2018-11-23T10:49:01.109Z,1013.47
2018-11-23T10:50:00.225Z,1013.44
2018-11-23T10:51:00.230Z,1013.43
2018-11-23T10:52:01.070Z,1013.40
2018-11-23T10:53:01.072Z,1013.35
2018-11-23T10:54:01.227Z,1013.30
2018-11-23T10:55:01.098Z,1013.31
2018-11-23T10:56:00.324Z,1013.30
2018-11-23T10:57:01.178Z,1013.29
2018-11-23T10:58:01.177Z,1013.28
2018-11-23T10:59:00.255Z,1013.29
2018-11-23T11:00:01.100Z,1013.28
2018-11-23T11:01:00.165Z,1013.31
2018-11-23T11:02:01.069Z,1013.31
2018-11-23T11:03:00.579Z,1013.30
2018-11-23T11:04:00.603Z,1013.28
2018-11-23T11:05:00.597Z,1013.30
2018-11-23T11:06:00.036Z,1013.27
2018-11-23T11:07:00.579Z,1013.26
2018-11-23T11:08:00.028Z,1013.24
2018-11-23T11:09:00.066Z,1013.18
2018-11-23T11:10:00.590Z,1013.17
2018-11-23T11:11:00.139Z,1013.14
2018-11-23T11:11:59.966Z,1013.14
2018-11-23T11:13:00.577Z,1013.22
2018-11-23T11:14:00.025Z,1013.11
2018-11-23T11:15:00.590Z,1013.14
2018-11-23T11:16:00.593Z,1013.13
2018-11-23T11:16:59.915Z,1013.10
2018-11-23T11:18:00.670Z,1013.11
2018-11-23T11:18:59.895Z,1013.05
2018-11-23T11:20:00.102Z,1013.01
2018-11-23T11:21:00.683Z,1013.02
2018-11-23T11:21:59.866Z,1013.01
2018-11-23T11:22:59.845Z,1012.99
2018-11-23T11:24:00.612Z,1013.01
2018-11-23T11:24:59.845Z,1012.98
2018-11-23T11:25:59.837Z,1012.96
2018-11-23T11:26:59.809Z,1012.93
2018-11-23T11:27:59.839Z,1012.93
2018-11-23T11:29:00.737Z,1012.91
2018-11-23T11:30:00.597Z,1012.93
2018-11-23T11:31:00.586Z,1012.88
2018-11-23T11:32:00.596Z,1012.89
2018-11-23T11:33:00.580Z,1012.85
2018-11-23T11:33:59.741Z,1012.76
2018-11-23T11:35:00.631Z,1012.76
2018-11-23T11:36:00.576Z,1012.75
2018-11-23T11:37:00.571Z,1012.72
2018-11-23T11:37:59.686Z,1012.69
2018-11-23T11:38:59.674Z,1012.69
2018-11-23T11:40:00.714Z,1012.66
2018-11-23T11:41:00.578Z,1012.68
2018-11-23T11:42:00.573Z,1012.66
2018-11-23T11:42:59.641Z,1012.70
2018-11-23T11:44:00.578Z,1012.68
2018-11-23T11:44:59.619Z,1012.65
2018-11-23T11:46:00.106Z,1012.65
2018-11-23T11:46:59.593Z,1012.69
2018-11-23T11:48:00.172Z,1012.68
2018-11-23T11:48:59.564Z,1012.65
2018-11-23T11:49:59.550Z,1012.58
2018-11-23T11:51:00.128Z,1012.59
2018-11-23T11:52:00.085Z,1012.60
2018-11-23T11:53:00.080Z,1012.62
2018-11-23T11:54:00.080Z,1012.56
2018-11-23T11:54:59.496Z,1012.60
2018-11-23T11:56:00.102Z,1012.57
2018-11-23T11:57:00.110Z,1012.58
2018-11-23T11:57:59.466Z,1012.56
2018-11-23T11:59:00.219Z,1012.56
2018-11-23T11:59:59.438Z,1012.54
2018-11-23T12:00:59.469Z,1012.62
2018-11-23T12:01:59.416Z,1012.64
2018-11-23T12:02:59.716Z,1012.59
2018-11-23T12:04:00.104Z,1012.55
2018-11-23T12:05:00.119Z,1012.49